Terminal Aerodrome Forecast
Issued by NWS Albuquerque, NM

Current Version | Previous Version | Text Only | Print | Product List | Glossary On
Versions: 1 2 3 4 5 6 7 8 9 10 11 12 13 14 15
000
FTUS45 KABQ 271139
TAFABQ
TAF
KABQ 271139Z 2712/2812 VRB06KT P6SM SCT200
     FM271800 10009KT P6SM SCT200
     FM272100 12012G18KT P6SM SCT080
     FM280300 13008KT P6SM SCT100=

USA.gov is the U.S. government's official web portal to all federal, state and local government web resources and services.